Weather observations for the past three days for
Custer, Custer County Airport
Metric (Imperial)
Date Time (mdt) Wind (kph) Vis. (km) Weather Sky Cond. Temperature (ºC) Relative Humidity Wind Chill (°C) Heat Index (°C) Pressure Precipitation (cm)
Air Dwpt 6 hour altimeter (cm) sea level (mb) 1 hr 3 hr 6 hr
Max. Min.
09 09:53 NE 17 16.09 Overcast OVC080 8.9 1.7 61% 7 76.17 1012.8
09 08:53 NE 17 16.09 Overcast FEW075 OVC090 7.8 0.6 61% 5 76.1 1011.3
09 07:53 NE 7 16.09 Overcast BKN085 OVC110 7.2 0.6 63% 6 76.07 1010.5
09 06:53 NE 9 16.09 Fair CLR 6.7 -0.6 60% 5 76 1009.3
09 05:53 Vrbl 7 16.09 Fair CLR 10 -1.1 10 6.7 46% 9 75.9 1007.3
09 04:53 W 7 16.09 Fair CLR 9.4 -2.2 44% 9 75.87 1006.7
09 03:53 W 13 16.09 Fair CLR 8.9 -2.2 46% 7 75.87 1007.2
09 02:53 W 7 16.09 Fair CLR 7.8 -2.2 50% 7 75.87 1007.6
09 01:53 W 11 16.09 Fair CLR 8.9 -2.2 46% 7 75.87 1007.6
09 00:53 W 7 16.09 Fair CLR 8.3 -2.2 48% 7 75.9 1008.1
08 23:53 W 9 16.09 Fair CLR 7.2 -1.7 16.1 5.6 54% 6 75.92 1008.6
08 22:53 W 6 16.09 Partly Cloudy SCT100 6.7 -1.7 55% 75.95 1009.2
08 21:53 Calm 16.09 Fair CLR 8.9 -2.8 44% 75.97 1009.2
08 20:53 Calm 16.09 Fair CLR 11.7 -2.8 37% 75.97 1008.7
08 19:53 W 6 16.09 A Few Clouds FEW100 13.3 -2.8 33% 75.95 1008.5
08 18:53 W 11 G 28 16.09 Partly Cloudy FEW090 SCT100 15 -3.3 28% 75.95 1008.3
08 17:53 W 17 G 31 16.09 Mostly Cloudy BKN090 15 -3.9 16.7 12.2 27% 75.97 1009.1
08 16:53 W 20 G 46 16.09 Fair CLR 16.7 -5 22% 76 1009.2
08 15:53 NW 20 G 31 16.09 Partly Cloudy SCT070 SCT090 15 -2.8 29% 76.02 1010.0
08 14:53 N 15 G 39 16.09 Mostly Cloudy SCT065 SCT080 BKN110 14.4 -1.1 35% 76.07 1011.0
08 13:53 NW 11 16.09 Mostly Cloudy FEW049 BKN075 BKN095 13.3 -1.1 37% 76.1 1011.7
08 12:53 NW 19 G 33 16.09 Mostly Cloudy BKN070 BKN090 13.9 -3.9 29% 76.1 1011.3
08 11:53 NW 15 16.09 Mostly Cloudy SCT070 BKN090 13.9 -2.8 13.9 5.6 32% 76.1 1011.1
08 10:53 NW 19 G 39 16.09 Mostly Cloudy BKN060 BKN075 13.3 -1.7 36% 76.12 1011.9
08 09:53 NW 22 G 46 16.09 Mostly Cloudy BKN060 BKN070 12.2 -1.7 38% 76.15 1012.4
08 08:53 NW 19 G 50 16.09 Fair CLR 11.7 0.6 47% 76.12 1011.9
08 07:53 Vrbl 11 16.09 Fair CLR 10 1.1 54% 9 76.12 1012.3
08 06:53 NW 13 16.09 Fair CLR 7.8 1.1 63% 6 76.1 1012.3
08 05:53 NW 9 16.09 Fair CLR 6.1 0.6 6.7 3.9 68% 4 76.07 1012.7
08 04:53 NW 11 16.09 Fair CLR 5.6 0.6 71% 3 76.05 1011.5
08 03:53 W 9 16.09 Fair CLR 5 1.7 79% 3 76.02 1011.5
08 02:53 W 11 16.09 Fair CLR 4.4 2.8 89% 2 76.02 1011.4
08 01:53 W 7 16.09 Fair CLR 4.4 2.2 86% 3 76.05 1011.5
08 00:53 W 9 16.09 Fair CLR 5 2.8 86% 3 76.05 1011.3
07 23:53 NW 7 16.09 Fair CLR 6.7 3.3 8.3 4.4 79% 6 76.05 1010.4
07 22:53 W 11 16.09 Fair CLR 5.6 2.2 79% 3 76.05 1011.4
07 21:53 NW 6 16.09 Fair CLR 5.6 1.7 76% 76.05 1011.0
07 20:53 NW 7 16.09 Fair CLR 6.7 2.8 76% 6 76.02 1010.3
07 19:53 Calm 16.09 Partly Cloudy SCT120 7.2 3.9 80% 75.97 1010.0
07 18:53 NW 6 16.09 Overcast OVC100 7.8 4.4 79% 75.9 1009.2
07 17:53 Calm 16.09 Overcast SCT036 BKN046 OVC060 6.1 4.4 12.8 5.6 89% 75.95 1010.8 0.2 0.2
07 16:53 NW 11 G 30 16.09 Thunderstorm in Vicinity SCT029 BKN050 BKN080 10.6 3.3 61% 75.9 1009.1
07 15:53 W 17 16.09 Mostly Cloudy BKN085 10 5 71% 8 75.9 1009.4
07 14:53 W 26 G 46 16.09 Mostly Cloudy FEW035 BKN060 BKN075 11.1 2.8 57% 75.92 1009.8
07 13:53 NW 19 G 43 16.09 Light Rain SCT044 BKN060 OVC070 10.6 2.8 59% 75.95 1010.9
07 12:53 W 20 G 35 16.09 Overcast BKN048 OVC060 12.2 0.6 45% 75.92 1010.1
07 11:53 W 17 G 35 16.09 Overcast BKN050 BKN060 OVC090 12.8 0.6 12.8 6.7 44% 75.9 1009.8
07 10:53 NW 17 16.09 Overcast FEW050 OVC080 11.1 0 47% 75.95 1010.7
07 09:53 NW 17 G 33 16.09 Mostly Cloudy SCT070 BKN120 11.7 -1.1 41% 75.92 1009.8
07 08:53 NW 22 G 35 16.09 Fair CLR 11.7 -6.7 27% 75.92 1009.5
07 07:53 NW 15 16.09 Fair CLR 10 -7.2 29% 8 75.9 1009.2
07 06:53 NW 11 16.09 Fair CLR 8.9 -7.2 32% 7 75.84 1008.7
07 05:53 W 19 G 30 16.09 Fair CLR 6.7 -7.2 6.7 0.6 37% 4 75.82 1008.9
07 04:53 W 15 16.09 Fair CLR 5.6 -8.9 35% 3 75.79 1008.7
07 03:53 W 17 16.09 Fair CLR 5 -11.1 30% 2 75.77 1008.3
07 02:53 W 17 16.09 Fair CLR 3.9 -11.1 33% 0 75.74 1008.4
07 01:53 W 9 16.09 Fair CLR 2.2 -12.8 32% -0 75.77 1009.6
07 00:53 W 13 16.09 Fair CLR 1.7 -12.2 35% -2 75.82 1010.0
06 23:53 W 9 16.09 Fair CLR 1.1 -12.2 7.8 0 37% -1 75.84 1011.4
06 22:53 W 7 16.09 Fair CLR 1.7 -13.3 32% -0 75.87 1011.7
06 21:53 W 6 16.09 Fair CLR 3.3 -13.3 29% 75.95 1013.0
06 20:53 Calm 16.09 Fair CLR 4.4 -13.3 27% 75.95 1013.3
06 19:53 W 13 16.09 Fair CLR 6.1 -13.3 24% 4 75.95 1013.2
06 18:53 W 19 G 33 16.09 Fair CLR 7.2 -14.4 20% 4 75.95 1013.5
06 17:53 W 20 16.09 Fair CLR 7.2 -13.9 8.3 4.4 21% 4 76 1014.8
06 16:53 W 22 G 48 16.09 Fair CLR 7.8 -12.8 22% 5 76.02 1015.0
06 15:53 NW 19 G 39 16.09 Fair CLR 7.8 -13.3 21% 5 76.07 1015.6
06 14:53 W 26 G 41 16.09 Fair CLR 7.8 -12.2 23% 4 76.12 1016.1
06 13:53 W 15 G 43 16.09 Fair CLR 6.7 -12.2 25% 4 76.15 1016.8
06 12:53 W 19 G 37 16.09 Fair CLR 6.7 -10.6 28% 4 76.17 1016.7
06 11:53 Calm 16.09 A Few Clouds FEW060 4.4 -11.1 5 -7.2 32% 76.23 1018.0
06 10:53 Calm 16.09 A Few Clouds FEW050 3.3 -11.1 34% 76.28 1018.5
Date Time (mdt) Wind (kph) Vis. (km) Weather Sky Cond. Air Dwpt Max. Min. Relative Humidity Wind Chill (°C) Heat Index (°C) altimeter (cm) sea level (mb) 1 hr 3 hr 6 hr
6 hour
Temperature (ºC) Pressure Precipitation (cm)